sensor_id;sensor_type;location;lat;lon;timestamp;P1;durP1;ratioP1;P2;durP2;ratioP2
74259;SDS011;62630;55.874;37.516;2023-03-04T00:00:55;4.90;;;2.00;;
74259;SDS011;62630;55.874;37.516;2023-03-04T00:03:21;6.78;;;2.28;;
74259;SDS011;62630;55.874;37.516;2023-03-04T00:05:46;3.28;;;1.65;;
74259;SDS011;62630;55.874;37.516;2023-03-04T00:08:12;6.60;;;2.10;;
74259;SDS011;62630;55.874;37.516;2023-03-04T00:10:37;5.13;;;2.40;;
74259;SDS011;62630;55.874;37.516;2023-03-04T00:13:03;6.50;;;2.17;;
74259;SDS011;62630;55.874;37.516;2023-03-04T00:15:29;4.88;;;2.35;;
74259;SDS011;62630;55.874;37.516;2023-03-04T00:17:54;6.65;;;2.30;;
74259;SDS011;62630;55.874;37.516;2023-03-04T00:20:20;3.42;;;2.03;;
74259;SDS011;62630;55.874;37.516;2023-03-04T00:22:46;3.42;;;2.20;;
74259;SDS011;62630;55.874;37.516;2023-03-04T00:25:11;8.57;;;2.80;;
74259;SDS011;62630;55.874;37.516;2023-03-04T00:27:37;4.05;;;2.17;;
74259;SDS011;62630;55.874;37.516;2023-03-04T00:30:03;5.22;;;1.67;;
74259;SDS011;62630;55.874;37.516;2023-03-04T00:32:30;5.57;;;2.35;;
74259;SDS011;62630;55.874;37.516;2023-03-04T00:34:56;7.03;;;2.70;;
74259;SDS011;62630;55.874;37.516;2023-03-04T00:37:27;5.85;;;2.63;;
74259;SDS011;62630;55.874;37.516;2023-03-04T00:39:52;9.68;;;3.05;;
74259;SDS011;62630;55.874;37.516;2023-03-04T00:42:18;6.07;;;2.83;;
74259;SDS011;62630;55.874;37.516;2023-03-04T00:44:43;6.47;;;3.13;;
74259;SDS011;62630;55.874;37.516;2023-03-04T00:47:09;9.40;;;2.60;;
74259;SDS011;62630;55.874;37.516;2023-03-04T00:49:34;9.05;;;3.35;;
74259;SDS011;62630;55.874;37.516;2023-03-04T00:52:01;5.18;;;2.70;;
74259;SDS011;62630;55.874;37.516;2023-03-04T00:54:27;8.20;;;2.78;;
74259;SDS011;62630;55.874;37.516;2023-03-04T00:56:52;4.53;;;2.72;;
74259;SDS011;62630;55.874;37.516;2023-03-04T00:59:18;7.30;;;2.90;;
74259;SDS011;62630;55.874;37.516;2023-03-04T01:01:43;4.22;;;2.85;;
74259;SDS011;62630;55.874;37.516;2023-03-04T01:04:09;4.38;;;2.38;;
74259;SDS011;62630;55.874;37.516;2023-03-04T01:06:35;4.95;;;2.60;;
74259;SDS011;62630;55.874;37.516;2023-03-04T01:09:03;4.43;;;2.40;;
74259;SDS011;62630;55.874;37.516;2023-03-04T01:11:29;6.85;;;2.65;;
74259;SDS011;62630;55.874;37.516;2023-03-04T01:13:54;4.78;;;2.33;;
74259;SDS011;62630;55.874;37.516;2023-03-04T01:16:20;4.97;;;2.85;;
74259;SDS011;62630;55.874;37.516;2023-03-04T01:18:45;3.38;;;2.30;;
74259;SDS011;62630;55.874;37.516;2023-03-04T01:21:11;5.13;;;2.53;;
74259;SDS011;62630;55.874;37.516;2023-03-04T01:23:37;3.78;;;2.40;;
74259;SDS011;62630;55.874;37.516;2023-03-04T01:26:03;5.45;;;2.83;;
74259;SDS011;62630;55.874;37.516;2023-03-04T01:28:28;5.18;;;2.75;;
74259;SDS011;62630;55.874;37.516;2023-03-04T01:30:54;5.95;;;3.35;;
74259;SDS011;62630;55.874;37.516;2023-03-04T01:33:19;6.93;;;2.90;;
74259;SDS011;62630;55.874;37.516;2023-03-04T01:35:45;6.38;;;3.05;;
74259;SDS011;62630;55.874;37.516;2023-03-04T01:38:10;6.28;;;2.88;;
74259;SDS011;62630;55.874;37.516;2023-03-04T01:40:37;7.78;;;2.70;;
74259;SDS011;62630;55.874;37.516;2023-03-04T01:43:03;4.80;;;2.60;;
74259;SDS011;62630;55.874;37.516;2023-03-04T01:45:29;4.20;;;2.35;;
74259;SDS011;62630;55.874;37.516;2023-03-04T01:47:56;3.53;;;2.35;;
74259;SDS011;62630;55.874;37.516;2023-03-04T01:52:58;7.53;;;2.78;;
74259;SDS011;62630;55.874;37.516;2023-03-04T01:55:23;5.80;;;2.63;;
74259;SDS011;62630;55.874;37.516;2023-03-04T01:57:50;5.05;;;3.00;;
74259;SDS011;62630;55.874;37.516;2023-03-04T02:00:18;8.20;;;2.45;;
74259;SDS011;62630;55.874;37.516;2023-03-04T02:02:47;3.90;;;2.78;;
74259;SDS011;62630;55.874;37.516;2023-03-04T02:05:14;4.75;;;2.40;;
74259;SDS011;62630;55.874;37.516;2023-03-04T02:07:41;5.70;;;2.83;;
74259;SDS011;62630;55.874;37.516;2023-03-04T02:10:08;9.57;;;3.55;;
74259;SDS011;62630;55.874;37.516;2023-03-04T02:12:34;8.77;;;3.10;;
74259;SDS011;62630;55.874;37.516;2023-03-04T02:14:59;4.70;;;2.70;;
74259;SDS011;62630;55.874;37.516;2023-03-04T02:17:25;5.65;;;3.05;;
74259;SDS011;62630;55.874;37.516;2023-03-04T02:20:02;7.53;;;3.40;;
74259;SDS011;62630;55.874;37.516;2023-03-04T02:22:57;6.22;;;3.22;;
74259;SDS011;62630;55.874;37.516;2023-03-04T02:25:32;5.43;;;3.38;;
74259;SDS011;62630;55.874;37.516;2023-03-04T02:28:05;5.88;;;3.28;;
74259;SDS011;62630;55.874;37.516;2023-03-04T02:30:30;5.60;;;3.28;;
74259;SDS011;62630;55.874;37.516;2023-03-04T02:32:56;7.55;;;3.45;;
74259;SDS011;62630;55.874;37.516;2023-03-04T02:35:22;8.40;;;3.50;;
74259;SDS011;62630;55.874;37.516;2023-03-04T02:37:47;7.25;;;3.55;;
74259;SDS011;62630;55.874;37.516;2023-03-04T02:40:14;7.72;;;3.80;;
74259;SDS011;62630;55.874;37.516;2023-03-04T02:42:45;5.90;;;3.50;;
74259;SDS011;62630;55.874;37.516;2023-03-04T02:45:28;8.57;;;3.58;;
74259;SDS011;62630;55.874;37.516;2023-03-04T02:47:58;7.05;;;3.50;;
74259;SDS011;62630;55.874;37.516;2023-03-04T02:50:23;10.02;;;3.67;;
74259;SDS011;62630;55.874;37.516;2023-03-04T02:52:50;6.85;;;3.80;;
74259;SDS011;62630;55.874;37.516;2023-03-04T02:55:16;6.40;;;3.63;;
74259;SDS011;62630;55.874;37.516;2023-03-04T02:57:41;9.15;;;4.28;;
74259;SDS011;62630;55.874;37.516;2023-03-04T03:00:07;8.57;;;4.03;;
74259;SDS011;62630;55.874;37.516;2023-03-04T03:02:33;9.40;;;3.72;;
74259;SDS011;62630;55.874;37.516;2023-03-04T03:04:58;6.18;;;3.97;;
74259;SDS011;62630;55.874;37.516;2023-03-04T03:07:24;6.53;;;4.20;;
74259;SDS011;62630;55.874;37.516;2023-03-04T03:09:49;7.13;;;3.80;;
74259;SDS011;62630;55.874;37.516;2023-03-04T03:12:15;6.72;;;4.78;;
74259;SDS011;62630;55.874;37.516;2023-03-04T03:14:40;7.93;;;4.45;;
74259;SDS011;62630;55.874;37.516;2023-03-04T03:17:06;7.15;;;4.03;;
74259;SDS011;62630;55.874;37.516;2023-03-04T03:19:31;7.22;;;4.70;;
74259;SDS011;62630;55.874;37.516;2023-03-04T03:21:57;8.77;;;4.53;;
74259;SDS011;62630;55.874;37.516;2023-03-04T03:24:22;11.38;;;4.50;;
74259;SDS011;62630;55.874;37.516;2023-03-04T03:26:48;6.63;;;4.45;;
74259;SDS011;62630;55.874;37.516;2023-03-04T03:29:13;6.05;;;3.75;;
74259;SDS011;62630;55.874;37.516;2023-03-04T03:31:39;8.52;;;4.43;;
74259;SDS011;62630;55.874;37.516;2023-03-04T03:34:04;8.70;;;4.68;;
74259;SDS011;62630;55.874;37.516;2023-03-04T03:36:30;5.80;;;3.60;;
74259;SDS011;62630;55.874;37.516;2023-03-04T03:38:55;7.80;;;3.97;;
74259;SDS011;62630;55.874;37.516;2023-03-04T03:41:21;5.40;;;3.05;;
74259;SDS011;62630;55.874;37.516;2023-03-04T03:43:46;16.90;;;4.35;;
74259;SDS011;62630;55.874;37.516;2023-03-04T03:46:11;7.00;;;4.05;;
74259;SDS011;62630;55.874;37.516;2023-03-04T03:48:37;7.72;;;3.65;;
74259;SDS011;62630;55.874;37.516;2023-03-04T03:51:02;5.78;;;3.67;;
74259;SDS011;62630;55.874;37.516;2023-03-04T03:53:28;6.55;;;3.83;;
74259;SDS011;62630;55.874;37.516;2023-03-04T03:55:53;6.25;;;3.95;;
74259;SDS011;62630;55.874;37.516;2023-03-04T03:58:19;6.03;;;3.53;;
74259;SDS011;62630;55.874;37.516;2023-03-04T04:00:44;4.97;;;3.33;;
74259;SDS011;62630;55.874;37.516;2023-03-04T04:03:11;6.03;;;4.03;;
74259;SDS011;62630;55.874;37.516;2023-03-04T04:05:39;5.45;;;3.05;;
74259;SDS011;62630;55.874;37.516;2023-03-04T04:08:05;6.05;;;3.20;;
74259;SDS011;62630;55.874;37.516;2023-03-04T04:10:30;7.43;;;3.38;;
74259;SDS011;62630;55.874;37.516;2023-03-04T04:12:56;5.32;;;2.58;;
74259;SDS011;62630;55.874;37.516;2023-03-04T04:15:21;7.20;;;3.28;;
74259;SDS011;62630;55.874;37.516;2023-03-04T04:17:47;3.47;;;2.22;;
74259;SDS011;62630;55.874;37.516;2023-03-04T04:20:12;4.82;;;2.90;;
74259;SDS011;62630;55.874;37.516;2023-03-04T04:22:38;4.50;;;2.25;;
74259;SDS011;62630;55.874;37.516;2023-03-04T04:25:03;6.53;;;2.50;;
74259;SDS011;62630;55.874;37.516;2023-03-04T04:27:29;4.85;;;2.25;;
74259;SDS011;62630;55.874;37.516;2023-03-04T04:29:55;5.60;;;2.97;;
74259;SDS011;62630;55.874;37.516;2023-03-04T04:32:20;5.80;;;2.40;;
74259;SDS011;62630;55.874;37.516;2023-03-04T04:34:46;6.28;;;2.75;;
74259;SDS011;62630;55.874;37.516;2023-03-04T04:37:12;4.93;;;2.53;;
74259;SDS011;62630;55.874;37.516;2023-03-04T04:39:37;5.80;;;2.55;;
74259;SDS011;62630;55.874;37.516;2023-03-04T04:42:03;5.18;;;2.50;;
74259;SDS011;62630;55.874;37.516;2023-03-04T04:44:28;4.43;;;2.78;;
74259;SDS011;62630;55.874;37.516;2023-03-04T04:46:54;3.08;;;2.15;;
74259;SDS011;62630;55.874;37.516;2023-03-04T04:49:19;5.47;;;2.10;;
74259;SDS011;62630;55.874;37.516;2023-03-04T04:51:45;6.47;;;2.35;;
74259;SDS011;62630;55.874;37.516;2023-03-04T04:54:11;4.05;;;2.58;;
74259;SDS011;62630;55.874;37.516;2023-03-04T04:56:37;8.57;;;3.00;;
74259;SDS011;62630;55.874;37.516;2023-03-04T04:59:04;3.67;;;2.08;;
74259;SDS011;62630;55.874;37.516;2023-03-04T05:01:31;4.63;;;3.33;;
74259;SDS011;62630;55.874;37.516;2023-03-04T05:03:57;5.07;;;2.80;;
74259;SDS011;62630;55.874;37.516;2023-03-04T05:06:22;5.65;;;3.35;;
74259;SDS011;62630;55.874;37.516;2023-03-04T05:08:49;4.97;;;3.00;;
74259;SDS011;62630;55.874;37.516;2023-03-04T05:11:15;6.05;;;2.97;;
74259;SDS011;62630;55.874;37.516;2023-03-04T05:13:43;3.92;;;2.20;;
74259;SDS011;62630;55.874;37.516;2023-03-04T05:16:09;5.13;;;2.60;;
74259;SDS011;62630;55.874;37.516;2023-03-04T05:18:35;3.83;;;2.53;;
74259;SDS011;62630;55.874;37.516;2023-03-04T05:21:00;3.40;;;2.47;;
74259;SDS011;62630;55.874;37.516;2023-03-04T05:23:30;4.15;;;2.70;;
74259;SDS011;62630;55.874;37.516;2023-03-04T05:25:57;3.40;;;2.22;;
74259;SDS011;62630;55.874;37.516;2023-03-04T05:28:25;4.22;;;2.95;;
74259;SDS011;62630;55.874;37.516;2023-03-04T05:30:51;4.95;;;3.15;;
74259;SDS011;62630;55.874;37.516;2023-03-04T05:33:16;6.18;;;2.80;;
74259;SDS011;62630;55.874;37.516;2023-03-04T05:35:43;10.18;;;3.00;;
74259;SDS011;62630;55.874;37.516;2023-03-04T05:38:10;5.80;;;3.75;;
74259;SDS011;62630;55.874;37.516;2023-03-04T05:40:37;7.90;;;3.90;;
74259;SDS011;62630;55.874;37.516;2023-03-04T05:43:03;10.60;;;4.03;;
74259;SDS011;62630;55.874;37.516;2023-03-04T05:45:29;6.90;;;4.45;;
74259;SDS011;62630;55.874;37.516;2023-03-04T05:47:54;7.20;;;3.80;;
74259;SDS011;62630;55.874;37.516;2023-03-04T05:50:20;6.85;;;4.20;;
74259;SDS011;62630;55.874;37.516;2023-03-04T05:52:47;6.97;;;4.45;;
74259;SDS011;62630;55.874;37.516;2023-03-04T05:55:13;6.88;;;3.10;;
74259;SDS011;62630;55.874;37.516;2023-03-04T05:57:40;4.82;;;3.17;;
74259;SDS011;62630;55.874;37.516;2023-03-04T06:00:06;4.82;;;2.70;;
74259;SDS011;62630;55.874;37.516;2023-03-04T06:02:37;5.97;;;3.17;;
74259;SDS011;62630;55.874;37.516;2023-03-04T06:05:03;4.95;;;3.03;;
74259;SDS011;62630;55.874;37.516;2023-03-04T06:07:29;4.97;;;3.20;;
74259;SDS011;62630;55.874;37.516;2023-03-04T06:09:54;6.60;;;3.40;;
74259;SDS011;62630;55.874;37.516;2023-03-04T06:12:20;5.50;;;3.05;;
74259;SDS011;62630;55.874;37.516;2023-03-04T06:14:46;6.25;;;2.58;;
74259;SDS011;62630;55.874;37.516;2023-03-04T06:17:11;4.45;;;2.47;;
74259;SDS011;62630;55.874;37.516;2023-03-04T06:19:37;5.93;;;3.15;;
74259;SDS011;62630;55.874;37.516;2023-03-04T06:22:03;4.45;;;2.72;;
74259;SDS011;62630;55.874;37.516;2023-03-04T06:24:29;5.28;;;2.95;;
74259;SDS011;62630;55.874;37.516;2023-03-04T06:26:55;6.30;;;3.30;;
74259;SDS011;62630;55.874;37.516;2023-03-04T06:29:20;4.45;;;2.53;;
74259;SDS011;62630;55.874;37.516;2023-03-04T06:31:46;6.18;;;2.70;;
74259;SDS011;62630;55.874;37.516;2023-03-04T06:34:11;7.63;;;3.58;;
74259;SDS011;62630;55.874;37.516;2023-03-04T06:36:37;5.53;;;3.28;;
74259;SDS011;62630;55.874;37.516;2023-03-04T06:39:03;11.57;;;6.95;;
74259;SDS011;62630;55.874;37.516;2023-03-04T06:41:29;6.28;;;3.30;;
74259;SDS011;62630;55.874;37.516;2023-03-04T06:43:55;5.43;;;3.33;;
74259;SDS011;62630;55.874;37.516;2023-03-04T06:46:21;4.15;;;2.88;;
74259;SDS011;62630;55.874;37.516;2023-03-04T06:48:47;6.63;;;3.40;;
74259;SDS011;62630;55.874;37.516;2023-03-04T06:51:13;4.97;;;3.10;;
74259;SDS011;62630;55.874;37.516;2023-03-04T06:53:39;8.68;;;3.17;;
74259;SDS011;62630;55.874;37.516;2023-03-04T06:56:05;5.15;;;3.25;;
74259;SDS011;62630;55.874;37.516;2023-03-04T06:58:32;7.15;;;3.40;;
74259;SDS011;62630;55.874;37.516;2023-03-04T07:01:08;5.03;;;2.88;;
74259;SDS011;62630;55.874;37.516;2023-03-04T07:03:54;5.05;;;3.03;;
74259;SDS011;62630;55.874;37.516;2023-03-04T07:06:21;6.45;;;3.25;;
74259;SDS011;62630;55.874;37.516;2023-03-04T07:08:49;10.13;;;3.10;;
74259;SDS011;62630;55.874;37.516;2023-03-04T07:11:15;7.43;;;3.13;;
74259;SDS011;62630;55.874;37.516;2023-03-04T07:13:42;3.80;;;3.00;;
74259;SDS011;62630;55.874;37.516;2023-03-04T07:16:13;4.43;;;2.88;;
74259;SDS011;62630;55.874;37.516;2023-03-04T07:18:41;7.15;;;3.15;;
74259;SDS011;62630;55.874;37.516;2023-03-04T07:21:08;5.57;;;3.20;;
74259;SDS011;62630;55.874;37.516;2023-03-04T07:23:34;4.50;;;2.83;;
74259;SDS011;62630;55.874;37.516;2023-03-04T07:26:00;4.22;;;2.92;;
74259;SDS011;62630;55.874;37.516;2023-03-04T07:28:26;4.47;;;3.10;;
74259;SDS011;62630;55.874;37.516;2023-03-04T07:30:51;5.40;;;3.63;;
74259;SDS011;62630;55.874;37.516;2023-03-04T07:33:17;4.93;;;2.50;;
74259;SDS011;62630;55.874;37.516;2023-03-04T07:35:45;6.10;;;3.03;;
74259;SDS011;62630;55.874;37.516;2023-03-04T07:38:14;4.07;;;2.80;;
74259;SDS011;62630;55.874;37.516;2023-03-04T07:40:40;8.32;;;3.17;;
74259;SDS011;62630;55.874;37.516;2023-03-04T07:43:05;4.25;;;2.72;;
74259;SDS011;62630;55.874;37.516;2023-03-04T07:45:33;4.75;;;3.03;;
74259;SDS011;62630;55.874;37.516;2023-03-04T07:48:05;6.15;;;3.28;;
74259;SDS011;62630;55.874;37.516;2023-03-04T07:50:30;5.97;;;3.13;;
74259;SDS011;62630;55.874;37.516;2023-03-04T07:52:56;5.55;;;3.45;;
74259;SDS011;62630;55.874;37.516;2023-03-04T07:55:21;8.60;;;3.83;;
74259;SDS011;62630;55.874;37.516;2023-03-04T07:57:46;4.53;;;3.20;;
74259;SDS011;62630;55.874;37.516;2023-03-04T08:00:13;8.50;;;3.05;;
74259;SDS011;62630;55.874;37.516;2023-03-04T08:02:40;9.73;;;3.70;;
74259;SDS011;62630;55.874;37.516;2023-03-04T08:05:06;6.47;;;2.97;;
74259;SDS011;62630;55.874;37.516;2023-03-04T08:07:34;5.32;;;2.80;;
74259;SDS011;62630;55.874;37.516;2023-03-04T08:10:00;8.80;;;3.90;;
74259;SDS011;62630;55.874;37.516;2023-03-04T08:12:26;6.22;;;2.95;;
74259;SDS011;62630;55.874;37.516;2023-03-04T08:14:52;3.55;;;2.80;;
74259;SDS011;62630;55.874;37.516;2023-03-04T08:17:17;5.50;;;3.08;;
74259;SDS011;62630;55.874;37.516;2023-03-04T08:19:43;6.05;;;3.30;;
74259;SDS011;62630;55.874;37.516;2023-03-04T08:22:12;4.57;;;3.03;;
74259;SDS011;62630;55.874;37.516;2023-03-04T08:24:38;4.30;;;2.88;;
74259;SDS011;62630;55.874;37.516;2023-03-04T08:27:03;6.32;;;3.38;;
74259;SDS011;62630;55.874;37.516;2023-03-04T08:29:29;5.35;;;3.38;;
74259;SDS011;62630;55.874;37.516;2023-03-04T08:31:57;4.90;;;2.83;;
74259;SDS011;62630;55.874;37.516;2023-03-04T08:34:24;6.80;;;3.90;;
74259;SDS011;62630;55.874;37.516;2023-03-04T08:36:52;5.85;;;3.38;;
74259;SDS011;62630;55.874;37.516;2023-03-04T08:39:18;6.93;;;3.20;;
74259;SDS011;62630;55.874;37.516;2023-03-04T08:41:44;7.18;;;3.63;;
74259;SDS011;62630;55.874;37.516;2023-03-04T08:44:11;4.10;;;2.53;;
74259;SDS011;62630;55.874;37.516;2023-03-04T08:46:37;4.07;;;3.03;;
74259;SDS011;62630;55.874;37.516;2023-03-04T08:49:04;5.20;;;3.00;;
74259;SDS011;62630;55.874;37.516;2023-03-04T08:51:48;5.28;;;3.15;;
74259;SDS011;62630;55.874;37.516;2023-03-04T08:54:14;3.38;;;2.40;;
74259;SDS011;62630;55.874;37.516;2023-03-04T08:56:40;7.50;;;2.95;;
74259;SDS011;62630;55.874;37.516;2023-03-04T08:59:05;5.20;;;2.55;;
74259;SDS011;62630;55.874;37.516;2023-03-04T09:01:31;9.50;;;2.78;;
74259;SDS011;62630;55.874;37.516;2023-03-04T09:03:56;7.68;;;2.75;;
74259;SDS011;62630;55.874;37.516;2023-03-04T09:06:22;4.20;;;2.50;;
74259;SDS011;62630;55.874;37.516;2023-03-04T09:08:47;6.90;;;3.67;;
74259;SDS011;62630;55.874;37.516;2023-03-04T09:11:13;5.40;;;2.95;;
74259;SDS011;62630;55.874;37.516;2023-03-04T09:13:39;4.22;;;2.70;;
74259;SDS011;62630;55.874;37.516;2023-03-04T09:16:09;4.53;;;2.83;;
74259;SDS011;62630;55.874;37.516;2023-03-04T09:18:36;5.20;;;2.92;;
74259;SDS011;62630;55.874;37.516;2023-03-04T09:21:03;6.40;;;2.70;;
74259;SDS011;62630;55.874;37.516;2023-03-04T09:23:29;5.53;;;2.80;;
74259;SDS011;62630;55.874;37.516;2023-03-04T09:25:54;7.43;;;2.88;;
74259;SDS011;62630;55.874;37.516;2023-03-04T09:28:20;6.18;;;3.03;;
74259;SDS011;62630;55.874;37.516;2023-03-04T09:30:46;6.25;;;3.53;;
74259;SDS011;62630;55.874;37.516;2023-03-04T09:33:12;7.53;;;3.55;;
74259;SDS011;62630;55.874;37.516;2023-03-04T09:35:40;6.35;;;3.50;;
74259;SDS011;62630;55.874;37.516;2023-03-04T09:38:06;4.15;;;2.85;;
74259;SDS011;62630;55.874;37.516;2023-03-04T09:40:36;3.85;;;2.58;;
74259;SDS011;62630;55.874;37.516;2023-03-04T09:43:10;5.78;;;2.90;;
74259;SDS011;62630;55.874;37.516;2023-03-04T09:45:46;6.88;;;3.13;;
74259;SDS011;62630;55.874;37.516;2023-03-04T09:48:16;4.10;;;2.67;;
74259;SDS011;62630;55.874;37.516;2023-03-04T09:56:35;7.03;;;3.28;;
74259;SDS011;62630;55.874;37.516;2023-03-04T09:59:16;4.93;;;2.53;;
74259;SDS011;62630;55.874;37.516;2023-03-04T10:01:59;5.10;;;2.53;;
74259;SDS011;62630;55.874;37.516;2023-03-04T10:07:04;9.93;;;3.70;;
74259;SDS011;62630;55.874;37.516;2023-03-04T10:09:48;9.70;;;3.58;;
74259;SDS011;62630;55.874;37.516;2023-03-04T10:12:26;9.70;;;2.92;;
74259;SDS011;62630;55.874;37.516;2023-03-04T10:15:00;4.75;;;2.25;;
74259;SDS011;62630;55.874;37.516;2023-03-04T10:17:39;5.50;;;2.97;;
74259;SDS011;62630;55.874;37.516;2023-03-04T10:20:23;4.20;;;2.17;;
74259;SDS011;62630;55.874;37.516;2023-03-04T10:22:58;4.38;;;2.15;;
74259;SDS011;62630;55.874;37.516;2023-03-04T10:25:32;3.42;;;1.80;;
74259;SDS011;62630;55.874;37.516;2023-03-04T10:28:42;4.15;;;2.25;;
74259;SDS011;62630;55.874;37.516;2023-03-04T10:33:52;3.03;;;1.50;;
74259;SDS011;62630;55.874;37.516;2023-03-04T10:38:56;3.30;;;1.63;;
74259;SDS011;62630;55.874;37.516;2023-03-04T10:41:28;4.20;;;1.98;;
74259;SDS011;62630;55.874;37.516;2023-03-04T10:46:22;5.35;;;2.50;;
74259;SDS011;62630;55.874;37.516;2023-03-04T10:48:48;5.22;;;2.28;;
74259;SDS011;62630;55.874;37.516;2023-03-04T10:51:20;4.60;;;1.92;;
74259;SDS011;62630;55.874;37.516;2023-03-04T10:59:23;3.42;;;2.00;;
74259;SDS011;62630;55.874;37.516;2023-03-04T11:01:54;4.72;;;1.85;;
74259;SDS011;62630;55.874;37.516;2023-03-04T11:04:22;2.92;;;1.85;;
74259;SDS011;62630;55.874;37.516;2023-03-04T11:06:52;5.43;;;2.00;;
74259;SDS011;62630;55.874;37.516;2023-03-04T11:09:26;4.13;;;2.30;;
74259;SDS011;62630;55.874;37.516;2023-03-04T11:12:00;5.45;;;2.45;;
74259;SDS011;62630;55.874;37.516;2023-03-04T11:14:27;4.30;;;2.20;;
74259;SDS011;62630;55.874;37.516;2023-03-04T11:26:20;4.60;;;2.25;;
74259;SDS011;62630;55.874;37.516;2023-03-04T11:31:33;6.72;;;2.17;;
74259;SDS011;62630;55.874;37.516;2023-03-04T11:34:14;4.38;;;1.60;;
74259;SDS011;62630;55.874;37.516;2023-03-04T11:37:05;6.13;;;1.58;;
74259;SDS011;62630;55.874;37.516;2023-03-04T11:44:49;5.13;;;2.25;;
74259;SDS011;62630;55.874;37.516;2023-03-04T11:50:01;5.35;;;2.83;;
74259;SDS011;62630;55.874;37.516;2023-03-04T11:53:03;6.72;;;2.58;;
74259;SDS011;62630;55.874;37.516;2023-03-04T12:19:50;10.45;;;3.35;;
74259;SDS011;62630;55.874;37.516;2023-03-04T12:25:02;7.03;;;3.38;;
74259;SDS011;62630;55.874;37.516;2023-03-04T12:30:48;5.22;;;2.55;;
74259;SDS011;62630;55.874;37.516;2023-03-04T12:33:30;4.78;;;2.90;;
74259;SDS011;62630;55.874;37.516;2023-03-04T12:47:49;7.75;;;3.45;;
74259;SDS011;62630;55.874;37.516;2023-03-04T12:53:46;14.57;;;4.75;;
74259;SDS011;62630;55.874;37.516;2023-03-04T12:56:36;8.63;;;3.33;;
74259;SDS011;62630;55.874;37.516;2023-03-04T12:59:16;6.80;;;3.00;;
74259;SDS011;62630;55.874;37.516;2023-03-04T13:07:15;10.90;;;3.15;;
74259;SDS011;62630;55.874;37.516;2023-03-04T13:10:04;13.55;;;4.70;;
74259;SDS011;62630;55.874;37.516;2023-03-04T13:12:46;6.68;;;3.17;;
74259;SDS011;62630;55.874;37.516;2023-03-04T13:17:42;5.03;;;3.03;;
74259;SDS011;62630;55.874;37.516;2023-03-04T13:25:36;7.53;;;3.85;;
74259;SDS011;62630;55.874;37.516;2023-03-04T13:51:17;10.07;;;4.07;;
74259;SDS011;62630;55.874;37.516;2023-03-04T14:01:35;6.05;;;4.15;;
74259;SDS011;62630;55.874;37.516;2023-03-04T14:04:17;7.30;;;4.22;;
74259;SDS011;62630;55.874;37.516;2023-03-04T14:06:47;9.35;;;3.95;;
74259;SDS011;62630;55.874;37.516;2023-03-04T14:09:24;6.05;;;3.65;;
74259;SDS011;62630;55.874;37.516;2023-03-04T14:11:53;9.02;;;4.20;;
74259;SDS011;62630;55.874;37.516;2023-03-04T14:14:25;7.25;;;3.22;;
74259;SDS011;62630;55.874;37.516;2023-03-04T14:17:08;5.50;;;3.55;;
74259;SDS011;62630;55.874;37.516;2023-03-04T14:23:26;7.18;;;3.35;;
74259;SDS011;62630;55.874;37.516;2023-03-04T14:26:04;6.63;;;3.80;;
74259;SDS011;62630;55.874;37.516;2023-03-04T14:28:48;8.73;;;4.10;;
74259;SDS011;62630;55.874;37.516;2023-03-04T14:31:20;16.05;;;5.85;;
74259;SDS011;62630;55.874;37.516;2023-03-04T14:33:52;11.70;;;4.88;;
74259;SDS011;62630;55.874;37.516;2023-03-04T14:36:26;6.50;;;3.65;;
74259;SDS011;62630;55.874;37.516;2023-03-04T14:39:00;7.85;;;3.95;;
74259;SDS011;62630;55.874;37.516;2023-03-04T14:41:33;6.22;;;3.78;;
74259;SDS011;62630;55.874;37.516;2023-03-04T14:46:46;8.98;;;4.35;;
74259;SDS011;62630;55.874;37.516;2023-03-04T14:49:15;8.00;;;3.75;;
74259;SDS011;62630;55.874;37.516;2023-03-04T14:51:50;6.40;;;3.90;;
74259;SDS011;62630;55.874;37.516;2023-03-04T14:54:34;6.88;;;3.90;;
74259;SDS011;62630;55.874;37.516;2023-03-04T14:57:21;6.15;;;4.13;;
74259;SDS011;62630;55.874;37.516;2023-03-04T14:59:50;11.30;;;4.28;;
74259;SDS011;62630;55.874;37.516;2023-03-04T15:04:43;6.55;;;4.50;;
74259;SDS011;62630;55.874;37.516;2023-03-04T15:09:49;7.00;;;4.38;;
74259;SDS011;62630;55.874;37.516;2023-03-04T15:12:21;10.25;;;4.47;;
74259;SDS011;62630;55.874;37.516;2023-03-04T15:14:59;7.65;;;4.60;;
74259;SDS011;62630;55.874;37.516;2023-03-04T15:22:31;7.55;;;4.32;;
74259;SDS011;62630;55.874;37.516;2023-03-04T15:25:01;8.38;;;5.45;;
74259;SDS011;62630;55.874;37.516;2023-03-04T15:27:28;8.75;;;4.72;;
74259;SDS011;62630;55.874;37.516;2023-03-04T15:29:56;8.07;;;4.00;;
74259;SDS011;62630;55.874;37.516;2023-03-04T15:32:26;9.35;;;4.20;;
74259;SDS011;62630;55.874;37.516;2023-03-04T15:34:53;6.00;;;4.60;;
74259;SDS011;62630;55.874;37.516;2023-03-04T15:37:20;9.88;;;4.07;;
74259;SDS011;62630;55.874;37.516;2023-03-04T15:39:59;5.95;;;4.13;;
74259;SDS011;62630;55.874;37.516;2023-03-04T15:42:52;7.07;;;4.45;;
74259;SDS011;62630;55.874;37.516;2023-03-04T15:45:23;8.60;;;4.40;;
74259;SDS011;62630;55.874;37.516;2023-03-04T15:47:49;8.65;;;4.80;;
74259;SDS011;62630;55.874;37.516;2023-03-04T15:50:15;9.35;;;5.07;;
74259;SDS011;62630;55.874;37.516;2023-03-04T15:52:42;9.45;;;5.60;;
74259;SDS011;62630;55.874;37.516;2023-03-04T15:55:18;9.93;;;5.53;;
74259;SDS011;62630;55.874;37.516;2023-03-04T15:57:46;11.35;;;5.32;;
74259;SDS011;62630;55.874;37.516;2023-03-04T16:00:13;5.35;;;4.40;;
74259;SDS011;62630;55.874;37.516;2023-03-04T16:02:39;7.38;;;4.53;;
74259;SDS011;62630;55.874;37.516;2023-03-04T16:05:06;10.10;;;4.72;;
74259;SDS011;62630;55.874;37.516;2023-03-04T16:07:32;11.27;;;6.38;;
74259;SDS011;62630;55.874;37.516;2023-03-04T16:09:59;10.57;;;6.22;;
74259;SDS011;62630;55.874;37.516;2023-03-04T16:12:29;10.88;;;6.30;;
74259;SDS011;62630;55.874;37.516;2023-03-04T16:14:56;10.02;;;5.60;;
74259;SDS011;62630;55.874;37.516;2023-03-04T16:17:21;10.75;;;5.70;;
74259;SDS011;62630;55.874;37.516;2023-03-04T16:19:47;9.43;;;5.35;;
74259;SDS011;62630;55.874;37.516;2023-03-04T16:22:16;7.70;;;5.15;;
74259;SDS011;62630;55.874;37.516;2023-03-04T16:24:48;8.27;;;3.92;;
74259;SDS011;62630;55.874;37.516;2023-03-04T16:27:15;8.40;;;5.22;;
74259;SDS011;62630;55.874;37.516;2023-03-04T16:29:42;10.50;;;5.57;;
74259;SDS011;62630;55.874;37.516;2023-03-04T16:32:08;8.43;;;4.18;;
74259;SDS011;62630;55.874;37.516;2023-03-04T16:34:34;7.30;;;4.65;;
74259;SDS011;62630;55.874;37.516;2023-03-04T16:37:20;5.80;;;4.05;;
74259;SDS011;62630;55.874;37.516;2023-03-04T16:39:46;6.15;;;4.00;;
74259;SDS011;62630;55.874;37.516;2023-03-04T16:42:17;10.02;;;4.35;;
74259;SDS011;62630;55.874;37.516;2023-03-04T16:44:48;8.75;;;4.57;;
74259;SDS011;62630;55.874;37.516;2023-03-04T16:47:14;5.43;;;3.58;;
74259;SDS011;62630;55.874;37.516;2023-03-04T16:49:40;5.20;;;3.85;;
74259;SDS011;62630;55.874;37.516;2023-03-04T16:52:05;5.40;;;3.47;;
74259;SDS011;62630;55.874;37.516;2023-03-04T16:54:33;6.68;;;3.83;;
74259;SDS011;62630;55.874;37.516;2023-03-04T16:57:00;5.18;;;3.38;;
74259;SDS011;62630;55.874;37.516;2023-03-04T16:59:26;6.38;;;3.45;;
74259;SDS011;62630;55.874;37.516;2023-03-04T17:01:53;8.25;;;4.40;;
74259;SDS011;62630;55.874;37.516;2023-03-04T17:04:19;11.40;;;4.10;;
74259;SDS011;62630;55.874;37.516;2023-03-04T17:06:45;6.03;;;4.13;;
74259;SDS011;62630;55.874;37.516;2023-03-04T17:09:11;5.60;;;3.53;;
74259;SDS011;62630;55.874;37.516;2023-03-04T17:11:37;5.65;;;3.65;;